sensor_id;sensor_type;location;lat;lon;timestamp;temperature;humidity
2042;DHT22;1026;51.460;7.252;2023-05-07T00:00:43;16.90;91.70
2042;DHT22;1026;51.460;7.252;2023-05-07T00:03:15;16.90;91.80
2042;DHT22;1026;51.460;7.252;2023-05-07T00:05:41;16.90;91.80
2042;DHT22;1026;51.460;7.252;2023-05-07T00:08:06;16.90;91.80
2042;DHT22;1026;51.460;7.252;2023-05-07T00:10:33;16.90;91.90
2042;DHT22;1026;51.460;7.252;2023-05-07T00:12:58;16.90;91.90
2042;DHT22;1026;51.460;7.252;2023-05-07T00:15:24;16.80;91.90
2042;DHT22;1026;51.460;7.252;2023-05-07T00:17:50;16.80;91.90
2042;DHT22;1026;51.460;7.252;2023-05-07T00:20:15;16.80;91.90
2042;DHT22;1026;51.460;7.252;2023-05-07T00:22:41;16.80;92.00
2042;DHT22;1026;51.460;7.252;2023-05-07T00:25:07;16.70;91.90
2042;DHT22;1026;51.460;7.252;2023-05-07T00:27:33;16.80;92.00
2042;DHT22;1026;51.460;7.252;2023-05-07T00:29:59;16.80;92.00
2042;DHT22;1026;51.460;7.252;2023-05-07T00:32:24;16.80;92.00
2042;DHT22;1026;51.460;7.252;2023-05-07T00:34:50;16.70;92.00
2042;DHT22;1026;51.460;7.252;2023-05-07T00:37:16;16.70;92.00
2042;DHT22;1026;51.460;7.252;2023-05-07T00:39:42;16.70;92.00
2042;DHT22;1026;51.460;7.252;2023-05-07T00:42:07;16.70;92.00
2042;DHT22;1026;51.460;7.252;2023-05-07T00:44:33;16.70;92.10
2042;DHT22;1026;51.460;7.252;2023-05-07T00:47:05;16.60;92.10
2042;DHT22;1026;51.460;7.252;2023-05-07T00:49:38;16.70;92.20
2042;DHT22;1026;51.460;7.252;2023-05-07T00:52:05;16.70;92.30
2042;DHT22;1026;51.460;7.252;2023-05-07T00:54:32;16.70;92.30
2042;DHT22;1026;51.460;7.252;2023-05-07T00:56:57;16.60;92.30
2042;DHT22;1026;51.460;7.252;2023-05-07T00:59:23;16.60;92.30
2042;DHT22;1026;51.460;7.252;2023-05-07T01:01:49;16.60;92.30
2042;DHT22;1026;51.460;7.252;2023-05-07T01:04:14;16.60;92.40
2042;DHT22;1026;51.460;7.252;2023-05-07T01:06:40;16.60;92.30
2042;DHT22;1026;51.460;7.252;2023-05-07T01:09:07;16.60;92.30
2042;DHT22;1026;51.460;7.252;2023-05-07T01:11:32;16.60;92.40
2042;DHT22;1026;51.460;7.252;2023-05-07T01:13:59;16.60;92.40
2042;DHT22;1026;51.460;7.252;2023-05-07T01:16:25;16.60;92.40
2042;DHT22;1026;51.460;7.252;2023-05-07T01:18:52;16.50;92.40
2042;DHT22;1026;51.460;7.252;2023-05-07T01:21:18;16.60;92.40
2042;DHT22;1026;51.460;7.252;2023-05-07T01:23:47;16.50;92.40
2042;DHT22;1026;51.460;7.252;2023-05-07T01:26:13;16.50;92.40
2042;DHT22;1026;51.460;7.252;2023-05-07T01:28:39;16.50;92.40
2042;DHT22;1026;51.460;7.252;2023-05-07T01:31:04;16.50;92.50
2042;DHT22;1026;51.460;7.252;2023-05-07T01:33:34;16.50;92.50
2042;DHT22;1026;51.460;7.252;2023-05-07T01:36:00;16.50;92.50
2042;DHT22;1026;51.460;7.252;2023-05-07T01:38:29;16.50;92.60
2042;DHT22;1026;51.460;7.252;2023-05-07T01:40:55;16.50;92.60
2042;DHT22;1026;51.460;7.252;2023-05-07T01:43:21;16.40;92.60
2042;DHT22;1026;51.460;7.252;2023-05-07T01:45:48;16.40;92.60
2042;DHT22;1026;51.460;7.252;2023-05-07T01:48:15;16.40;92.60
2042;DHT22;1026;51.460;7.252;2023-05-07T01:50:44;16.40;92.60
2042;DHT22;1026;51.460;7.252;2023-05-07T01:53:10;16.40;92.60
2042;DHT22;1026;51.460;7.252;2023-05-07T01:55:35;16.40;92.70
2042;DHT22;1026;51.460;7.252;2023-05-07T01:58:02;16.40;92.70
2042;DHT22;1026;51.460;7.252;2023-05-07T02:00:28;16.40;92.70
2042;DHT22;1026;51.460;7.252;2023-05-07T02:02:54;16.40;92.70
2042;DHT22;1026;51.460;7.252;2023-05-07T02:05:20;16.40;92.70
2042;DHT22;1026;51.460;7.252;2023-05-07T02:07:46;16.40;92.80
2042;DHT22;1026;51.460;7.252;2023-05-07T02:10:11;16.30;92.80
2042;DHT22;1026;51.460;7.252;2023-05-07T02:12:37;16.30;92.80
2042;DHT22;1026;51.460;7.252;2023-05-07T02:15:03;16.40;92.80
2042;DHT22;1026;51.460;7.252;2023-05-07T02:17:38;16.30;92.80
2042;DHT22;1026;51.460;7.252;2023-05-07T02:20:04;16.30;92.90
2042;DHT22;1026;51.460;7.252;2023-05-07T02:22:30;16.30;92.90
2042;DHT22;1026;51.460;7.252;2023-05-07T02:24:56;16.30;92.90
2042;DHT22;1026;51.460;7.252;2023-05-07T02:27:21;16.30;92.90
2042;DHT22;1026;51.460;7.252;2023-05-07T02:29:47;16.30;92.90
2042;DHT22;1026;51.460;7.252;2023-05-07T02:32:12;16.30;93.00
2042;DHT22;1026;51.460;7.252;2023-05-07T02:34:38;16.20;92.90
2042;DHT22;1026;51.460;7.252;2023-05-07T02:37:04;16.20;92.90
2042;DHT22;1026;51.460;7.252;2023-05-07T02:39:30;16.20;93.00
2042;DHT22;1026;51.460;7.252;2023-05-07T02:41:56;16.20;93.00
2042;DHT22;1026;51.460;7.252;2023-05-07T02:44:21;16.20;93.00
2042;DHT22;1026;51.460;7.252;2023-05-07T02:46:47;16.20;93.00
2042;DHT22;1026;51.460;7.252;2023-05-07T02:49:13;16.20;93.00
2042;DHT22;1026;51.460;7.252;2023-05-07T02:51:38;16.20;93.10
2042;DHT22;1026;51.460;7.252;2023-05-07T02:54:04;16.20;93.10
2042;DHT22;1026;51.460;7.252;2023-05-07T02:56:30;16.20;93.10
2042;DHT22;1026;51.460;7.252;2023-05-07T02:58:55;16.20;93.10
2042;DHT22;1026;51.460;7.252;2023-05-07T03:01:21;16.10;93.10
2042;DHT22;1026;51.460;7.252;2023-05-07T03:03:47;16.10;93.10
2042;DHT22;1026;51.460;7.252;2023-05-07T03:06:12;16.10;93.10
2042;DHT22;1026;51.460;7.252;2023-05-07T03:08:38;16.10;93.20
2042;DHT22;1026;51.460;7.252;2023-05-07T03:11:14;16.10;93.20
2042;DHT22;1026;51.460;7.252;2023-05-07T03:13:40;16.10;93.20
2042;DHT22;1026;51.460;7.252;2023-05-07T03:16:08;16.10;93.20
2042;DHT22;1026;51.460;7.252;2023-05-07T03:18:34;16.10;93.20
2042;DHT22;1026;51.460;7.252;2023-05-07T03:20:59;16.10;93.30
2042;DHT22;1026;51.460;7.252;2023-05-07T03:23:25;16.00;93.30
2042;DHT22;1026;51.460;7.252;2023-05-07T03:25:51;16.00;93.40
2042;DHT22;1026;51.460;7.252;2023-05-07T03:28:16;16.00;93.30
2042;DHT22;1026;51.460;7.252;2023-05-07T03:30:42;16.00;93.30
2042;DHT22;1026;51.460;7.252;2023-05-07T03:33:08;15.90;93.20
2042;DHT22;1026;51.460;7.252;2023-05-07T03:35:33;16.00;93.30
2042;DHT22;1026;51.460;7.252;2023-05-07T03:37:59;16.00;93.30
2042;DHT22;1026;51.460;7.252;2023-05-07T03:40:25;16.00;93.40
2042;DHT22;1026;51.460;7.252;2023-05-07T03:42:50;16.00;93.40
2042;DHT22;1026;51.460;7.252;2023-05-07T03:45:16;16.00;93.70
2042;DHT22;1026;51.460;7.252;2023-05-07T03:47:42;16.00;93.40
2042;DHT22;1026;51.460;7.252;2023-05-07T03:50:08;15.80;93.30
2042;DHT22;1026;51.460;7.252;2023-05-07T03:52:33;16.00;93.40
2042;DHT22;1026;51.460;7.252;2023-05-07T03:55:00;15.90;93.40
2042;DHT22;1026;51.460;7.252;2023-05-07T03:57:26;15.90;93.50
2042;DHT22;1026;51.460;7.252;2023-05-07T03:59:51;15.90;93.50
2042;DHT22;1026;51.460;7.252;2023-05-07T04:02:17;15.90;93.50
2042;DHT22;1026;51.460;7.252;2023-05-07T04:04:42;15.90;93.40
2042;DHT22;1026;51.460;7.252;2023-05-07T04:07:08;15.90;93.40
2042;DHT22;1026;51.460;7.252;2023-05-07T04:09:35;15.90;93.40
2042;DHT22;1026;51.460;7.252;2023-05-07T04:12:13;15.90;93.50
2042;DHT22;1026;51.460;7.252;2023-05-07T04:14:38;15.90;93.50
2042;DHT22;1026;51.460;7.252;2023-05-07T04:17:04;15.90;93.50
2042;DHT22;1026;51.460;7.252;2023-05-07T04:19:33;15.80;93.50
2042;DHT22;1026;51.460;7.252;2023-05-07T04:21:59;15.90;93.60
2042;DHT22;1026;51.460;7.252;2023-05-07T04:24:24;15.80;93.50
2042;DHT22;1026;51.460;7.252;2023-05-07T04:26:50;15.70;93.50
2042;DHT22;1026;51.460;7.252;2023-05-07T04:29:16;15.80;93.50
2042;DHT22;1026;51.460;7.252;2023-05-07T04:31:42;15.80;93.60
2042;DHT22;1026;51.460;7.252;2023-05-07T04:34:10;15.80;93.60
2042;DHT22;1026;51.460;7.252;2023-05-07T04:36:37;15.80;93.60
2042;DHT22;1026;51.460;7.252;2023-05-07T04:39:03;15.80;93.60
2042;DHT22;1026;51.460;7.252;2023-05-07T04:41:29;15.80;93.70
2042;DHT22;1026;51.460;7.252;2023-05-07T04:43:55;15.80;93.70
2042;DHT22;1026;51.460;7.252;2023-05-07T04:46:31;15.80;93.70
2042;DHT22;1026;51.460;7.252;2023-05-07T04:48:57;15.80;93.80
2042;DHT22;1026;51.460;7.252;2023-05-07T04:51:22;15.70;93.70
2042;DHT22;1026;51.460;7.252;2023-05-07T04:53:48;15.70;93.80
2042;DHT22;1026;51.460;7.252;2023-05-07T04:56:14;15.70;93.70
2042;DHT22;1026;51.460;7.252;2023-05-07T04:58:40;15.70;93.80
2042;DHT22;1026;51.460;7.252;2023-05-07T05:01:05;15.80;93.80
2042;DHT22;1026;51.460;7.252;2023-05-07T05:03:31;15.70;93.80
2042;DHT22;1026;51.460;7.252;2023-05-07T05:05:57;15.70;93.90
2042;DHT22;1026;51.460;7.252;2023-05-07T05:08:24;15.70;93.80
2042;DHT22;1026;51.460;7.252;2023-05-07T05:10:50;15.70;93.90
2042;DHT22;1026;51.460;7.252;2023-05-07T05:13:16;15.70;93.90
2042;DHT22;1026;51.460;7.252;2023-05-07T05:15:41;15.70;93.90
2042;DHT22;1026;51.460;7.252;2023-05-07T05:18:07;15.60;93.90
2042;DHT22;1026;51.460;7.252;2023-05-07T05:20:33;15.70;94.00
2042;DHT22;1026;51.460;7.252;2023-05-07T05:22:58;15.60;93.90
2042;DHT22;1026;51.460;7.252;2023-05-07T05:25:24;15.70;94.00
2042;DHT22;1026;51.460;7.252;2023-05-07T05:27:50;15.70;94.00
2042;DHT22;1026;51.460;7.252;2023-05-07T05:30:15;15.70;94.00
2042;DHT22;1026;51.460;7.252;2023-05-07T05:32:41;15.60;94.00
2042;DHT22;1026;51.460;7.252;2023-05-07T05:35:07;15.60;94.00
2042;DHT22;1026;51.460;7.252;2023-05-07T05:37:33;15.60;94.00
2042;DHT22;1026;51.460;7.252;2023-05-07T05:39:59;15.60;94.00
2042;DHT22;1026;51.460;7.252;2023-05-07T05:42:24;15.60;94.00
2042;DHT22;1026;51.460;7.252;2023-05-07T05:44:50;15.60;94.10
2042;DHT22;1026;51.460;7.252;2023-05-07T05:47:16;15.60;94.00
2042;DHT22;1026;51.460;7.252;2023-05-07T05:49:41;15.60;94.10
2042;DHT22;1026;51.460;7.252;2023-05-07T05:59:31;15.60;94.20
2042;DHT22;1026;51.460;7.252;2023-05-07T06:02:00;15.60;94.30
2042;DHT22;1026;51.460;7.252;2023-05-07T06:04:25;15.60;94.20
2042;DHT22;1026;51.460;7.252;2023-05-07T06:06:51;15.60;94.20
2042;DHT22;1026;51.460;7.252;2023-05-07T06:09:17;15.60;94.30
2042;DHT22;1026;51.460;7.252;2023-05-07T06:11:42;15.60;94.30
2042;DHT22;1026;51.460;7.252;2023-05-07T06:14:08;15.60;94.30
2042;DHT22;1026;51.460;7.252;2023-05-07T06:16:33;15.60;94.30
2042;DHT22;1026;51.460;7.252;2023-05-07T06:18:59;15.60;94.20
2042;DHT22;1026;51.460;7.252;2023-05-07T06:21:25;15.60;94.20
2042;DHT22;1026;51.460;7.252;2023-05-07T06:23:50;15.60;94.20
2042;DHT22;1026;51.460;7.252;2023-05-07T06:26:17;15.60;94.20
2042;DHT22;1026;51.460;7.252;2023-05-07T06:28:43;15.60;94.10
2042;DHT22;1026;51.460;7.252;2023-05-07T06:31:14;15.60;94.40
2042;DHT22;1026;51.460;7.252;2023-05-07T06:33:41;15.60;94.10
2042;DHT22;1026;51.460;7.252;2023-05-07T06:36:07;15.60;94.10
2042;DHT22;1026;51.460;7.252;2023-05-07T06:38:33;15.60;94.10
2042;DHT22;1026;51.460;7.252;2023-05-07T06:40:58;15.60;94.10
2042;DHT22;1026;51.460;7.252;2023-05-07T06:43:24;15.70;94.10
2042;DHT22;1026;51.460;7.252;2023-05-07T06:45:50;15.70;94.10
2042;DHT22;1026;51.460;7.252;2023-05-07T06:48:15;15.70;94.10
2042;DHT22;1026;51.460;7.252;2023-05-07T06:50:41;15.70;94.10
2042;DHT22;1026;51.460;7.252;2023-05-07T06:53:07;15.70;94.10
2042;DHT22;1026;51.460;7.252;2023-05-07T06:55:33;15.70;94.00
2042;DHT22;1026;51.460;7.252;2023-05-07T06:57:58;15.70;94.00
2042;DHT22;1026;51.460;7.252;2023-05-07T07:00:27;15.70;94.00
2042;DHT22;1026;51.460;7.252;2023-05-07T07:02:54;15.70;94.00
2042;DHT22;1026;51.460;7.252;2023-05-07T07:05:20;15.70;94.00
2042;DHT22;1026;51.460;7.252;2023-05-07T07:07:45;15.70;93.90
2042;DHT22;1026;51.460;7.252;2023-05-07T07:10:18;15.70;93.90
2042;DHT22;1026;51.460;7.252;2023-05-07T07:12:44;15.70;93.80
2042;DHT22;1026;51.460;7.252;2023-05-07T07:15:10;15.80;94.30
2042;DHT22;1026;51.460;7.252;2023-05-07T07:17:36;15.80;94.20
2042;DHT22;1026;51.460;7.252;2023-05-07T07:20:02;15.80;94.20
2042;DHT22;1026;51.460;7.252;2023-05-07T07:22:28;15.80;94.10
2042;DHT22;1026;51.460;7.252;2023-05-07T07:24:54;15.80;94.00
2042;DHT22;1026;51.460;7.252;2023-05-07T07:27:20;15.80;94.00
2042;DHT22;1026;51.460;7.252;2023-05-07T07:29:45;15.80;93.90
2042;DHT22;1026;51.460;7.252;2023-05-07T07:32:11;15.90;93.90
2042;DHT22;1026;51.460;7.252;2023-05-07T07:34:37;15.90;94.00
2042;DHT22;1026;51.460;7.252;2023-05-07T07:37:02;15.90;93.90
2042;DHT22;1026;51.460;7.252;2023-05-07T07:39:32;15.90;93.80
2042;DHT22;1026;51.460;7.252;2023-05-07T07:41:57;15.90;93.80
2042;DHT22;1026;51.460;7.252;2023-05-07T07:44:23;15.90;93.80
2042;DHT22;1026;51.460;7.252;2023-05-07T07:46:49;15.90;93.90
2042;DHT22;1026;51.460;7.252;2023-05-07T07:49:16;16.00;93.90
2042;DHT22;1026;51.460;7.252;2023-05-07T07:51:41;16.00;94.30
2042;DHT22;1026;51.460;7.252;2023-05-07T07:54:07;16.00;94.00
2042;DHT22;1026;51.460;7.252;2023-05-07T07:56:33;16.00;93.70
2042;DHT22;1026;51.460;7.252;2023-05-07T07:58:59;16.00;93.80
2042;DHT22;1026;51.460;7.252;2023-05-07T08:01:25;16.00;93.50
2042;DHT22;1026;51.460;7.252;2023-05-07T08:03:51;16.10;93.50
2042;DHT22;1026;51.460;7.252;2023-05-07T08:06:17;16.10;93.60
2042;DHT22;1026;51.460;7.252;2023-05-07T08:08:43;16.10;93.60
2042;DHT22;1026;51.460;7.252;2023-05-07T08:11:09;16.10;93.40
2042;DHT22;1026;51.460;7.252;2023-05-07T08:13:34;16.10;93.40
2042;DHT22;1026;51.460;7.252;2023-05-07T08:16:00;16.20;93.80
2042;DHT22;1026;51.460;7.252;2023-05-07T08:18:29;16.20;93.60
2042;DHT22;1026;51.460;7.252;2023-05-07T08:20:55;16.20;93.80
2042;DHT22;1026;51.460;7.252;2023-05-07T08:23:21;16.20;94.70
2042;DHT22;1026;51.460;7.252;2023-05-07T08:25:47;16.30;94.50
2042;DHT22;1026;51.460;7.252;2023-05-07T08:28:13;16.20;94.40
2042;DHT22;1026;51.460;7.252;2023-05-07T08:30:39;16.30;94.30
2042;DHT22;1026;51.460;7.252;2023-05-07T08:33:04;16.30;94.30
2042;DHT22;1026;51.460;7.252;2023-05-07T08:35:30;16.30;94.30
2042;DHT22;1026;51.460;7.252;2023-05-07T08:37:57;16.30;94.50
2042;DHT22;1026;51.460;7.252;2023-05-07T08:40:26;16.30;94.60
2042;DHT22;1026;51.460;7.252;2023-05-07T08:42:53;16.40;94.70
2042;DHT22;1026;51.460;7.252;2023-05-07T08:45:19;16.30;94.50
2042;DHT22;1026;51.460;7.252;2023-05-07T08:47:51;16.40;94.30
2042;DHT22;1026;51.460;7.252;2023-05-07T08:50:18;16.40;94.40
2042;DHT22;1026;51.460;7.252;2023-05-07T08:52:45;16.50;94.60
2042;DHT22;1026;51.460;7.252;2023-05-07T08:55:11;16.50;94.30
2042;DHT22;1026;51.460;7.252;2023-05-07T08:57:38;16.50;94.70
2042;DHT22;1026;51.460;7.252;2023-05-07T09:00:04;16.50;94.90
2042;DHT22;1026;51.460;7.252;2023-05-07T09:02:33;16.60;94.60
2042;DHT22;1026;51.460;7.252;2023-05-07T09:05:00;16.60;94.30
2042;DHT22;1026;51.460;7.252;2023-05-07T09:07:26;16.60;94.20
2042;DHT22;1026;51.460;7.252;2023-05-07T09:09:52;16.60;93.90
2042;DHT22;1026;51.460;7.252;2023-05-07T09:12:21;16.70;94.00
2042;DHT22;1026;51.460;7.252;2023-05-07T09:14:46;16.70;94.30
2042;DHT22;1026;51.460;7.252;2023-05-07T09:17:13;16.70;94.20
2042;DHT22;1026;51.460;7.252;2023-05-07T09:19:39;16.70;94.10
2042;DHT22;1026;51.460;7.252;2023-05-07T09:22:05;16.80;94.20
2042;DHT22;1026;51.460;7.252;2023-05-07T09:24:51;16.80;94.10
2042;DHT22;1026;51.460;7.252;2023-05-07T09:27:28;16.80;94.10
2042;DHT22;1026;51.460;7.252;2023-05-07T09:29:53;16.90;93.80
2042;DHT22;1026;51.460;7.252;2023-05-07T09:32:19;16.90;93.90
2042;DHT22;1026;51.460;7.252;2023-05-07T09:34:45;16.90;93.80
2042;DHT22;1026;51.460;7.252;2023-05-07T09:37:13;16.90;93.80
2042;DHT22;1026;51.460;7.252;2023-05-07T09:39:44;17.00;93.60
2042;DHT22;1026;51.460;7.252;2023-05-07T09:42:10;17.00;93.60
2042;DHT22;1026;51.460;7.252;2023-05-07T09:44:44;17.00;93.60
2042;DHT22;1026;51.460;7.252;2023-05-07T09:47:11;17.10;93.70
2042;DHT22;1026;51.460;7.252;2023-05-07T09:49:47;17.10;93.30
2042;DHT22;1026;51.460;7.252;2023-05-07T09:52:13;17.20;93.50
2042;DHT22;1026;51.460;7.252;2023-05-07T09:54:40;17.20;93.30
2042;DHT22;1026;51.460;7.252;2023-05-07T09:57:10;17.20;93.00
2042;DHT22;1026;51.460;7.252;2023-05-07T09:59:37;17.30;93.20
2042;DHT22;1026;51.460;7.252;2023-05-07T10:02:04;17.30;92.90
2042;DHT22;1026;51.460;7.252;2023-05-07T10:04:31;17.30;93.00
2042;DHT22;1026;51.460;7.252;2023-05-07T10:06:57;17.40;93.00
2042;DHT22;1026;51.460;7.252;2023-05-07T10:09:25;17.40;92.90
2042;DHT22;1026;51.460;7.252;2023-05-07T10:11:54;17.40;92.90
2042;DHT22;1026;51.460;7.252;2023-05-07T10:14:28;17.40;92.70
2042;DHT22;1026;51.460;7.252;2023-05-07T10:16:54;17.50;93.10
2042;DHT22;1026;51.460;7.252;2023-05-07T10:19:20;17.50;92.80
2042;DHT22;1026;51.460;7.252;2023-05-07T10:21:55;17.60;92.60
2042;DHT22;1026;51.460;7.252;2023-05-07T10:24:26;17.60;92.50
2042;DHT22;1026;51.460;7.252;2023-05-07T10:26:53;17.60;92.60
2042;DHT22;1026;51.460;7.252;2023-05-07T10:34:37;17.80;92.30
2042;DHT22;1026;51.460;7.252;2023-05-07T10:37:05;17.80;92.30
2042;DHT22;1026;51.460;7.252;2023-05-07T10:39:31;17.80;92.10
2042;DHT22;1026;51.460;7.252;2023-05-07T10:42:03;17.90;92.40
2042;DHT22;1026;51.460;7.252;2023-05-07T10:44:32;17.90;92.30
2042;DHT22;1026;51.460;7.252;2023-05-07T10:47:07;17.90;92.10
2042;DHT22;1026;51.460;7.252;2023-05-07T10:49:35;18.00;92.00
2042;DHT22;1026;51.460;7.252;2023-05-07T10:52:18;18.00;92.00
2042;DHT22;1026;51.460;7.252;2023-05-07T10:54:47;18.00;91.90
2042;DHT22;1026;51.460;7.252;2023-05-07T10:57:34;18.10;91.80
2042;DHT22;1026;51.460;7.252;2023-05-07T11:00:03;18.10;91.70
2042;DHT22;1026;51.460;7.252;2023-05-07T11:05:28;18.20;91.60
2042;DHT22;1026;51.460;7.252;2023-05-07T11:07:57;18.20;91.60
2042;DHT22;1026;51.460;7.252;2023-05-07T11:10:23;18.20;91.60
2042;DHT22;1026;51.460;7.252;2023-05-07T11:13:09;18.30;91.60
2042;DHT22;1026;51.460;7.252;2023-05-07T11:15:37;18.30;91.50
2042;DHT22;1026;51.460;7.252;2023-05-07T11:18:03;18.40;91.50
2042;DHT22;1026;51.460;7.252;2023-05-07T11:26:13;18.40;91.80
2042;DHT22;1026;51.460;7.252;2023-05-07T11:28:41;18.40;91.60
2042;DHT22;1026;51.460;7.252;2023-05-07T11:31:07;18.40;91.50
2042;DHT22;1026;51.460;7.252;2023-05-07T11:33:34;18.50;91.50
2042;DHT22;1026;51.460;7.252;2023-05-07T11:36:02;18.50;91.40
2042;DHT22;1026;51.460;7.252;2023-05-07T11:38:29;18.60;91.40
2042;DHT22;1026;51.460;7.252;2023-05-07T11:40:58;18.60;91.30
2042;DHT22;1026;51.460;7.252;2023-05-07T11:43:28;18.60;91.30
2042;DHT22;1026;51.460;7.252;2023-05-07T11:45:53;18.60;91.20
2042;DHT22;1026;51.460;7.252;2023-05-07T11:48:21;18.70;91.40
2042;DHT22;1026;51.460;7.252;2023-05-07T11:51:02;18.70;91.30
2042;DHT22;1026;51.460;7.252;2023-05-07T11:53:36;18.70;91.20
2042;DHT22;1026;51.460;7.252;2023-05-07T11:56:06;18.70;91.30
2042;DHT22;1026;51.460;7.252;2023-05-07T11:58:32;18.80;91.50
2042;DHT22;1026;51.460;7.252;2023-05-07T12:00:58;18.80;91.70
2042;DHT22;1026;51.460;7.252;2023-05-07T12:03:24;18.80;91.20
2042;DHT22;1026;51.460;7.252;2023-05-07T12:05:49;18.90;91.20
2042;DHT22;1026;51.460;7.252;2023-05-07T12:08:19;18.90;91.30
2042;DHT22;1026;51.460;7.252;2023-05-07T12:10:46;18.90;91.20
2042;DHT22;1026;51.460;7.252;2023-05-07T12:16:09;19.00;91.00
2042;DHT22;1026;51.460;7.252;2023-05-07T12:18:36;19.00;91.00
2042;DHT22;1026;51.460;7.252;2023-05-07T12:21:03;19.00;91.20
2042;DHT22;1026;51.460;7.252;2023-05-07T12:23:29;19.10;90.90
2042;DHT22;1026;51.460;7.252;2023-05-07T12:25:55;19.10;90.80
2042;DHT22;1026;51.460;7.252;2023-05-07T12:28:21;19.10;91.20
2042;DHT22;1026;51.460;7.252;2023-05-07T12:30:48;19.20;90.80
2042;DHT22;1026;51.460;7.252;2023-05-07T12:33:18;19.20;90.80
2042;DHT22;1026;51.460;7.252;2023-05-07T12:35:47;19.20;90.70
2042;DHT22;1026;51.460;7.252;2023-05-07T12:38:15;19.20;90.70
2042;DHT22;1026;51.460;7.252;2023-05-07T12:40:44;19.30;90.70
2042;DHT22;1026;51.460;7.252;2023-05-07T12:43:26;19.30;90.70
2042;DHT22;1026;51.460;7.252;2023-05-07T12:45:54;19.30;90.70
2042;DHT22;1026;51.460;7.252;2023-05-07T12:48:21;19.30;90.70
2042;DHT22;1026;51.460;7.252;2023-05-07T12:50:51;19.30;90.80
2042;DHT22;1026;51.460;7.252;2023-05-07T12:53:19;19.40;90.80
2042;DHT22;1026;51.460;7.252;2023-05-07T12:55:48;19.40;90.60
2042;DHT22;1026;51.460;7.252;2023-05-07T12:58:25;19.30;90.60
2042;DHT22;1026;51.460;7.252;2023-05-07T13:00:52;19.40;90.50
2042;DHT22;1026;51.460;7.252;2023-05-07T13:03:25;19.40;90.20
2042;DHT22;1026;51.460;7.252;2023-05-07T13:05:51;19.40;90.10
2042;DHT22;1026;51.460;7.252;2023-05-07T13:08:35;19.50;90.30
2042;DHT22;1026;51.460;7.252;2023-05-07T13:11:03;19.40;90.00
2042;DHT22;1026;51.460;7.252;2023-05-07T13:13:31;19.50;90.20
2042;DHT22;1026;51.460;7.252;2023-05-07T13:15:57;19.50;90.30
2042;DHT22;1026;51.460;7.252;2023-05-07T13:18:25;19.50;90.40
2042;DHT22;1026;51.460;7.252;2023-05-07T13:20:51;19.50;90.50
2042;DHT22;1026;51.460;7.252;2023-05-07T13:23:17;19.50;90.40
2042;DHT22;1026;51.460;7.252;2023-05-07T13:25:43;19.50;90.10
2042;DHT22;1026;51.460;7.252;2023-05-07T13:28:09;19.60;90.30
2042;DHT22;1026;51.460;7.252;2023-05-07T13:30:35;19.60;90.30
2042;DHT22;1026;51.460;7.252;2023-05-07T13:33:00;19.60;90.40
2042;DHT22;1026;51.460;7.252;2023-05-07T13:35:26;19.60;90.10
2042;DHT22;1026;51.460;7.252;2023-05-07T13:37:52;19.60;90.30
2042;DHT22;1026;51.460;7.252;2023-05-07T13:40:18;19.60;90.10
2042;DHT22;1026;51.460;7.252;2023-05-07T13:42:44;19.60;90.10
2042;DHT22;1026;51.460;7.252;2023-05-07T13:45:10;19.60;90.30
2042;DHT22;1026;51.460;7.252;2023-05-07T13:47:40;19.60;90.30
2042;DHT22;1026;51.460;7.252;2023-05-07T13:50:07;19.60;90.40
2042;DHT22;1026;51.460;7.252;2023-05-07T13:52:32;19.60;90.30
2042;DHT22;1026;51.460;7.252;2023-05-07T13:54:58;19.70;90.30
2042;DHT22;1026;51.460;7.252;2023-05-07T13:57:24;19.70;90.20
2042;DHT22;1026;51.460;7.252;2023-05-07T13:59:50;19.70;90.20
2042;DHT22;1026;51.460;7.252;2023-05-07T14:02:15;19.70;90.20
2042;DHT22;1026;51.460;7.252;2023-05-07T14:04:50;19.70;90.30
2042;DHT22;1026;51.460;7.252;2023-05-07T14:07:16;19.70;90.20
2042;DHT22;1026;51.460;7.252;2023-05-07T14:09:41;19.70;90.10
2042;DHT22;1026;51.460;7.252;2023-05-07T14:12:10;19.70;90.20
2042;DHT22;1026;51.460;7.252;2023-05-07T14:14:36;19.70;90.20
2042;DHT22;1026;51.460;7.252;2023-05-07T14:17:01;19.70;90.30
2042;DHT22;1026;51.460;7.252;2023-05-07T14:19:27;19.70;90.20
2042;DHT22;1026;51.460;7.252;2023-05-07T14:21:53;19.70;90.40
2042;DHT22;1026;51.460;7.252;2023-05-07T14:24:18;19.70;90.50
2042;DHT22;1026;51.460;7.252;2023-05-07T14:26:44;19.70;90.50
2042;DHT22;1026;51.460;7.252;2023-05-07T14:29:10;19.70;90.60
2042;DHT22;1026;51.460;7.252;2023-05-07T14:31:36;19.70;90.70
2042;DHT22;1026;51.460;7.252;2023-05-07T14:34:01;19.70;90.70
2042;DHT22;1026;51.460;7.252;2023-05-07T14:36:27;19.70;90.90
2042;DHT22;1026;51.460;7.252;2023-05-07T14:38:55;19.80;90.90
2042;DHT22;1026;51.460;7.252;2023-05-07T14:41:22;19.70;91.00
2042;DHT22;1026;51.460;7.252;2023-05-07T14:43:48;19.70;90.90
2042;DHT22;1026;51.460;7.252;2023-05-07T14:46:18;19.70;90.70
2042;DHT22;1026;51.460;7.252;2023-05-07T14:48:45;19.80;90.80
2042;DHT22;1026;51.460;7.252;2023-05-07T14:51:13;19.60;90.90
2042;DHT22;1026;51.460;7.252;2023-05-07T14:53:40;19.70;91.00
2042;DHT22;1026;51.460;7.252;2023-05-07T14:56:06;19.70;91.20
2042;DHT22;1026;51.460;7.252;2023-05-07T14:58:33;19.80;91.20
2042;DHT22;1026;51.460;7.252;2023-05-07T15:00:59;19.80;91.10
2042;DHT22;1026;51.460;7.252;2023-05-07T15:03:25;19.80;91.10
2042;DHT22;1026;51.460;7.252;2023-05-07T15:05:54;19.70;91.00
2042;DHT22;1026;51.460;7.252;2023-05-07T15:08:19;19.70;91.10
2042;DHT22;1026;51.460;7.252;2023-05-07T15:10:45;19.70;91.10
2042;DHT22;1026;51.460;7.252;2023-05-07T15:13:11;19.80;91.20
2042;DHT22;1026;51.460;7.252;2023-05-07T15:15:38;19.80;91.10
2042;DHT22;1026;51.460;7.252;2023-05-07T15:18:04;19.80;91.20
2042;DHT22;1026;51.460;7.252;2023-05-07T15:20:30;19.80;91.20
2042;DHT22;1026;51.460;7.252;2023-05-07T15:22:56;19.70;91.20
2042;DHT22;1026;51.460;7.252;2023-05-07T15:25:22;19.70;91.30
2042;DHT22;1026;51.460;7.252;2023-05-07T15:27:48;19.70;91.20
2042;DHT22;1026;51.460;7.252;2023-05-07T15:30:14;19.70;91.80
2042;DHT22;1026;51.460;7.252;2023-05-07T15:32:41;19.70;91.30
2042;DHT22;1026;51.460;7.252;2023-05-07T15:35:07;19.70;91.70
2042;DHT22;1026;51.460;7.252;2023-05-07T15:37:33;19.70;91.30
2042;DHT22;1026;51.460;7.252;2023-05-07T15:39:59;19.70;91.30
2042;DHT22;1026;51.460;7.252;2023-05-07T15:42:25;19.70;91.30
2042;DHT22;1026;51.460;7.252;2023-05-07T15:44:50;19.70;91.30
2042;DHT22;1026;51.460;7.252;2023-05-07T15:47:16;19.70;91.20
2042;DHT22;1026;51.460;7.252;2023-05-07T15:49:42;19.70;91.10
2042;DHT22;1026;51.460;7.252;2023-05-07T15:52:08;19.70;91.10
2042;DHT22;1026;51.460;7.252;2023-05-07T15:54:36;19.70;91.00
2042;DHT22;1026;51.460;7.252;2023-05-07T15:57:03;19.70;91.00
2042;DHT22;1026;51.460;7.252;2023-05-07T15:59:29;19.70;91.00
2042;DHT22;1026;51.460;7.252;2023-05-07T16:01:55;19.70;91.00
2042;DHT22;1026;51.460;7.252;2023-05-07T16:04:22;19.70;91.00
2042;DHT22;1026;51.460;7.252;2023-05-07T16:06:48;19.70;91.00
2042;DHT22;1026;51.460;7.252;2023-05-07T16:09:13;19.70;91.00
2042;DHT22;1026;51.460;7.252;2023-05-07T16:11:39;19.70;91.00
2042;DHT22;1026;51.460;7.252;2023-05-07T16:14:05;19.70;91.00
2042;DHT22;1026;51.460;7.252;2023-05-07T16:16:32;19.70;91.00
2042;DHT22;1026;51.460;7.252;2023-05-07T16:18:58;19.70;91.00
2042;DHT22;1026;51.460;7.252;2023-05-07T16:21:24;19.70;90.90
2042;DHT22;1026;51.460;7.252;2023-05-07T16:23:49;19.70;90.90